Time;durP1;ratioP1;P1;durP2;ratioP2;P2;SDS_P1;SDS_P2;PMS_P1;PMS_P2;Temp;Humidity;BMP_temperature;BMP_pressure;BME280_temperature;BME280_humidity;BME280_pressure;Samples;Min_cycle;Max_cycle;Signal;HPM_P1;HPM_P2
2022/06/23 00:02:25;;;;;;;9.75;2.70;;;;;;;;;;5031128;28;20037;-74
2022/06/23 00:04:53;;;;;;;17.08;6.32;;;;;;;;;;5021899;28;20056;-74
2022/06/23 00:07:26;;;;;;;14.77;6.60;;;;;;;;;;5015102;28;20056;-74
2022/06/23 00:09:53;;;;;;;12.25;5.75;;;;;;;;;;5017869;28;20031;-74
2022/06/23 00:12:19;;;;;;;9.82;2.35;;;;;;;;;;5022793;28;20480;-74
2022/06/23 00:14:50;;;;;;;12.27;2.25;;;;;;;;;;5014369;28;20033;-74
2022/06/23 00:17:16;;;;;;;11.25;1.83;;;;;;;;;;5020321;28;20037;-74
2022/06/23 00:19:44;;;;;;;8.30;1.90;;;;;;;;;;5012476;28;20113;-74
2022/06/23 00:22:11;;;;;;;7.93;1.45;;;;;;;;;;5024469;28;20033;-74
2022/06/23 00:24:38;;;;;;;8.82;1.52;;;;;;;;;;5030916;28;20061;-75
2022/06/23 00:27:04;;;;;;;8.60;2.05;;;;;;;;;;5017593;28;20037;-74
2022/06/23 00:29:31;;;;;;;7.97;3.20;;;;;;;;;;5023824;28;20045;-74
2022/06/23 00:32:04;;;;;;;10.05;3.05;;;;;;;;;;5017661;28;20103;-74
2022/06/23 00:34:34;;;;;;;10.27;2.70;;;;;;;;;;5031314;28;20071;-74
2022/06/23 00:37:03;;;;;;;10.30;2.10;;;;;;;;;;5020540;28;20033;-74
2022/06/23 00:39:32;;;;;;;8.75;1.42;;;;;;;;;;5028179;28;20057;-74
2022/06/23 00:41:58;;;;;;;9.32;1.73;;;;;;;;;;5026107;28;20841;-74
2022/06/23 00:44:30;;;;;;;10.68;2.33;;;;;;;;;;5025127;28;20387;-75
2022/06/23 00:46:58;;;;;;;11.32;2.42;;;;;;;;;;5023313;28;20064;-74
2022/06/23 00:49:44;;;;;;;10.50;3.15;;;;;;;;;;5023450;28;20040;-74
2022/06/23 00:52:15;;;;;;;14.38;2.20;;;;;;;;;;5019336;28;20057;-75
2022/06/23 00:54:43;;;;;;;12.90;2.15;;;;;;;;;;5025101;28;20026;-75
2022/06/23 00:57:09;;;;;;;11.98;2.75;;;;;;;;;;5031427;28;20500;-75
2022/06/23 00:59:53;;;;;;;13.35;2.08;;;;;;;;;;5030464;28;20120;-75
2022/06/23 01:02:22;;;;;;;14.93;3.22;;;;;;;;;;5024930;28;20033;-74
2022/06/23 01:04:52;;;;;;;14.25;2.80;;;;;;;;;;5018884;28;20034;-74
2022/06/23 01:07:36;;;;;;;11.93;2.33;;;;;;;;;;5022819;28;20045;-75
2022/06/23 01:10:21;;;;;;;9.20;2.00;;;;;;;;;;5027864;28;20105;-75
2022/06/23 01:13:07;;;;;;;20.38;6.68;;;;;;;;;;5026520;28;20037;-74
2022/06/23 01:15:54;;;;;;;18.48;9.20;;;;;;;;;;5018261;28;20562;-74
2022/06/23 01:18:20;;;;;;;11.07;4.40;;;;;;;;;;5014532;28;20059;-74
2022/06/23 01:20:55;;;;;;;10.25;2.78;;;;;;;;;;5022030;28;20489;-74
2022/06/23 01:23:35;;;;;;;12.73;2.97;;;;;;;;;;5021537;28;20049;-74
2022/06/23 01:26:08;;;;;;;11.63;2.25;;;;;;;;;;5016261;28;20033;-74
2022/06/23 01:28:41;;;;;;;6.60;1.63;;;;;;;;;;5026902;28;20033;-74
2022/06/23 01:31:13;;;;;;;8.32;1.60;;;;;;;;;;5015744;28;20065;-74
2022/06/23 01:33:55;;;;;;;10.88;1.45;;;;;;;;;;5024085;28;20040;-74
2022/06/23 01:36:25;;;;;;;8.00;1.90;;;;;;;;;;5019771;28;20034;-74
2022/06/23 01:38:56;;;;;;;8.40;1.10;;;;;;;;;;5030762;28;20067;-74
2022/06/23 01:41:25;;;;;;;8.65;1.52;;;;;;;;;;5024789;28;20037;-74
2022/06/23 01:43:59;;;;;;;10.68;2.20;;;;;;;;;;5025720;28;20035;-74
2022/06/23 01:46:27;;;;;;;11.63;2.20;;;;;;;;;;5013508;28;20034;-74
2022/06/23 01:49:16;;;;;;;9.55;2.38;;;;;;;;;;5026439;28;20585;-74
2022/06/23 01:51:47;;;;;;;13.68;2.08;;;;;;;;;;5018751;28;20057;-74
2022/06/23 01:54:23;;;;;;;13.45;1.80;;;;;;;;;;5018639;28;20026;-74
2022/06/23 01:56:57;;;;;;;12.43;2.65;;;;;;;;;;5025000;28;20498;-74
2022/06/23 01:59:33;;;;;;;16.85;5.07;;;;;;;;;;5016324;28;20050;-75
2022/06/23 02:02:11;;;;;;;6.38;2.47;;;;;;;;;;5029459;28;20030;-74
2022/06/23 02:04:43;;;;;;;9.20;1.85;;;;;;;;;;5029921;28;20651;-74
2022/06/23 02:07:21;;;;;;;7.57;1.83;;;;;;;;;;5030041;28;20033;-74
2022/06/23 02:09:52;;;;;;;5.70;1.30;;;;;;;;;;5026080;28;20057;-75
2022/06/23 02:12:42;;;;;;;6.82;1.45;;;;;;;;;;5020195;28;20049;-74
2022/06/23 02:15:15;;;;;;;9.50;2.60;;;;;;;;;;5001347;28;20165;-74
2022/06/23 02:17:47;;;;;;;16.80;4.10;;;;;;;;;;5018510;28;20099;-74
2022/06/23 02:20:22;;;;;;;11.40;3.80;;;;;;;;;;5023613;28;20037;-74
2022/06/23 02:22:48;;;;;;;16.45;3.30;;;;;;;;;;5028037;28;20037;-75
2022/06/23 02:25:21;;;;;;;13.32;2.83;;;;;;;;;;5029670;28;20123;-74
2022/06/23 02:27:52;;;;;;;14.65;2.42;;;;;;;;;;5029104;28;20155;-74
2022/06/23 02:30:20;;;;;;;14.37;3.43;;;;;;;;;;5028450;28;20542;-74
2022/06/23 02:32:58;;;;;;;13.95;3.17;;;;;;;;;;5020917;28;20070;-74
2022/06/23 02:35:27;;;;;;;8.60;1.90;;;;;;;;;;5018677;28;20061;-74
2022/06/23 02:38:22;;;;;;;7.85;2.00;;;;;;;;;;5025441;28;20124;-74
2022/06/23 02:40:50;;;;;;;6.88;1.30;;;;;;;;;;5024249;28;20088;-74
2022/06/23 02:43:16;;;;;;;10.35;1.63;;;;;;;;;;5027446;28;20530;-74
2022/06/23 02:45:54;;;;;;;8.15;1.90;;;;;;;;;;5029487;28;20045;-74
2022/06/23 02:48:29;;;;;;;8.70;1.65;;;;;;;;;;5028214;28;20041;-74
2022/06/23 02:50:55;;;;;;;11.85;3.00;;;;;;;;;;5029202;28;20037;-75
2022/06/23 02:53:33;;;;;;;16.90;2.70;;;;;;;;;;5028190;28;20079;-74
2022/06/23 02:56:16;;;;;;;19.25;3.10;;;;;;;;;;5014480;28;20041;-75
2022/06/23 02:58:52;;;;;;;11.95;2.42;;;;;;;;;;5023385;28;20032;-74
2022/06/23 03:01:26;;;;;;;13.43;2.60;;;;;;;;;;5022486;28;20391;-74
2022/06/23 03:04:02;;;;;;;13.02;3.08;;;;;;;;;;5013322;28;20080;-74
2022/06/23 03:06:41;;;;;;;15.88;3.05;;;;;;;;;;5027854;28;20127;-74
2022/06/23 03:09:14;;;;;;;8.73;1.80;;;;;;;;;;5022581;28;20026;-74
2022/06/23 03:11:52;;;;;;;10.45;1.90;;;;;;;;;;5025495;28;20048;-74
2022/06/23 03:14:24;;;;;;;10.77;2.20;;;;;;;;;;5010362;28;20108;-75
2022/06/23 03:16:53;;;;;;;7.45;1.70;;;;;;;;;;5024255;28;20095;-74
2022/06/23 03:19:31;;;;;;;10.60;2.92;;;;;;;;;;5010561;28;20038;-74
2022/06/23 03:22:26;;;;;;;17.45;7.15;;;;;;;;;;5012083;28;20745;-74
2022/06/23 03:25:11;;;;;;;17.38;7.28;;;;;;;;;;5016893;28;20144;-74
2022/06/23 03:27:46;;;;;;;11.15;5.43;;;;;;;;;;5015939;28;20724;-74
2022/06/23 03:30:22;;;;;;;17.02;7.38;;;;;;;;;;5011995;28;20774;-74
2022/06/23 03:32:52;;;;;;;15.27;3.80;;;;;;;;;;5017340;28;20033;-74
2022/06/23 03:35:21;;;;;;;14.48;2.80;;;;;;;;;;5028309;28;20029;-73
2022/06/23 03:37:50;;;;;;;12.88;1.83;;;;;;;;;;5010871;28;20030;-74
2022/06/23 03:43:31;;;;;;;11.57;2.42;;;;;;;;;;5027801;28;20044;-74
2022/06/23 03:46:11;;;;;;;13.18;4.25;;;;;;;;;;5021692;28;20049;-74
2022/06/23 03:48:42;;;;;;;13.05;5.35;;;;;;;;;;5008757;28;20052;-74
2022/06/23 03:51:15;;;;;;;16.05;7.63;;;;;;;;;;5025785;28;20048;-74
2022/06/23 03:53:59;;;;;;;14.20;5.82;;;;;;;;;;5018268;28;20034;-73
2022/06/23 03:56:31;;;;;;;16.20;4.32;;;;;;;;;;5023118;28;20033;-75
2022/06/23 03:59:08;;;;;;;11.77;2.95;;;;;;;;;;5026506;28;20029;-74
2022/06/23 04:01:37;;;;;;;11.77;2.80;;;;;;;;;;5012704;28;20108;-73
2022/06/23 04:04:05;;;;;;;12.45;2.97;;;;;;;;;;5027694;28;20033;-74
2022/06/23 04:06:39;;;;;;;11.13;2.53;;;;;;;;;;5023993;28;20120;-74
2022/06/23 04:09:07;;;;;;;13.98;4.07;;;;;;;;;;5019056;28;20037;-73
2022/06/23 04:12:08;;;;;;;16.08;4.97;;;;;;;;;;5011034;28;20043;-74
2022/06/23 04:14:34;;;;;;;19.45;4.47;;;;;;;;;;4986029;28;20391;-74
2022/06/23 04:17:16;;;;;;;14.35;6.65;;;;;;;;;;5015644;28;20126;-74
2022/06/23 04:19:43;;;;;;;19.73;10.70;;;;;;;;;;5011686;28;20172;-74
2022/06/23 04:22:29;;;;;;;15.20;10.45;;;;;;;;;;5020017;28;20049;-74
2022/06/23 04:24:57;;;;;;;17.40;10.23;;;;;;;;;;5011813;28;20394;-74
2022/06/23 04:27:27;;;;;;;16.50;5.75;;;;;;;;;;5021126;28;20068;-74
2022/06/23 04:29:54;;;;;;;12.00;3.50;;;;;;;;;;5019366;28;20154;-73
2022/06/23 04:32:31;;;;;;;15.80;2.83;;;;;;;;;;5007229;28;20038;-74
2022/06/23 04:35:08;;;;;;;15.98;2.65;;;;;;;;;;5024047;28;20124;-74
2022/06/23 04:37:34;;;;;;;16.08;2.67;;;;;;;;;;5025907;28;20033;-74
2022/06/23 04:40:08;;;;;;;17.75;2.40;;;;;;;;;;5020669;28;20059;-75
2022/06/23 04:42:35;;;;;;;13.07;2.45;;;;;;;;;;5015429;28;20061;-74
2022/06/23 04:45:20;;;;;;;9.50;2.00;;;;;;;;;;5027675;28;20470;-74
2022/06/23 04:47:46;;;;;;;14.43;2.20;;;;;;;;;;5017489;28;20037;-74
2022/06/23 04:50:31;;;;;;;11.07;2.55;;;;;;;;;;5019103;28;20133;-74
2022/06/23 04:52:58;;;;;;;12.93;2.22;;;;;;;;;;5018350;28;20069;-74
2022/06/23 04:55:26;;;;;;;8.45;1.85;;;;;;;;;;5014762;28;20048;-74
2022/06/23 04:58:00;;;;;;;19.90;2.53;;;;;;;;;;5019456;28;20033;-74
2022/06/23 05:00:31;;;;;;;12.25;2.20;;;;;;;;;;5012394;28;20034;-74
2022/06/23 05:03:00;;;;;;;15.43;1.90;;;;;;;;;;5018929;28;20025;-75
2022/06/23 05:05:44;;;;;;;16.20;2.72;;;;;;;;;;5025736;28;20378;-75
2022/06/23 05:08:16;;;;;;;9.20;2.05;;;;;;;;;;5028674;28;20394;-74
2022/06/23 05:10:42;;;;;;;13.98;2.58;;;;;;;;;;5030105;28;20414;-75
2022/06/23 05:13:10;;;;;;;10.95;2.60;;;;;;;;;;5021541;28;20050;-74
2022/06/23 05:15:38;;;;;;;12.93;3.40;;;;;;;;;;5014662;28;20033;-74
2022/06/23 05:18:12;;;;;;;12.90;3.40;;;;;;;;;;5023794;28;20034;-74
2022/06/23 05:21:05;;;;;;;11.95;2.75;;;;;;;;;;5024900;28;20038;-74
2022/06/23 05:23:41;;;;;;;11.57;2.78;;;;;;;;;;5016199;28;20046;-73
2022/06/23 05:26:13;;;;;;;15.45;5.07;;;;;;;;;;5019756;28;20041;-75
2022/06/23 05:28:41;;;;;;;16.30;5.90;;;;;;;;;;5018271;28;20032;-75
2022/06/23 05:31:08;;;;;;;8.73;3.13;;;;;;;;;;5013179;28;20070;-72
2022/06/23 05:33:36;;;;;;;10.50;3.50;;;;;;;;;;5011215;28;20025;-74
2022/06/23 05:36:07;;;;;;;11.60;3.05;;;;;;;;;;5011375;28;20044;-72
2022/06/23 05:38:51;;;;;;;8.20;2.47;;;;;;;;;;5017548;28;20395;-73
2022/06/23 05:41:20;;;;;;;14.48;3.90;;;;;;;;;;5015428;28;20030;-73
2022/06/23 05:43:47;;;;;;;13.23;2.78;;;;;;;;;;5021970;28;20033;-73
2022/06/23 05:46:21;;;;;;;11.60;2.60;;;;;;;;;;5016595;28;20129;-73
2022/06/23 05:48:48;;;;;;;11.77;2.92;;;;;;;;;;5024680;28;20040;-74
2022/06/23 05:51:17;;;;;;;14.55;6.88;;;;;;;;;;5016371;28;20029;-74
2022/06/23 05:54:03;;;;;;;13.02;5.93;;;;;;;;;;5015770;28;20052;-74
2022/06/23 05:56:29;;;;;;;18.85;9.15;;;;;;;;;;5012532;28;20038;-74
2022/06/23 05:59:04;;;;;;;16.35;5.78;;;;;;;;;;5021642;28;20030;-74
2022/06/23 06:01:50;;;;;;;13.30;3.95;;;;;;;;;;5018218;28;20037;-74
2022/06/23 06:04:18;;;;;;;23.60;4.72;;;;;;;;;;4995888;28;20527;-74
2022/06/23 06:06:45;;;;;;;15.20;3.60;;;;;;;;;;5019729;28;20775;-74
2022/06/23 06:11:58;;;;;;;13.07;4.18;;;;;;;;;;5012962;28;20064;-74
2022/06/23 06:14:27;;;;;;;13.05;2.92;;;;;;;;;;5019725;28;20117;-74
2022/06/23 06:16:53;;;;;;;14.18;3.28;;;;;;;;;;5014525;28;20033;-74
2022/06/23 06:19:20;;;;;;;8.80;2.83;;;;;;;;;;5021351;28;20021;-74
2022/06/23 06:21:47;;;;;;;12.23;2.50;;;;;;;;;;5017351;28;20422;-74
2022/06/23 06:24:21;;;;;;;9.48;2.95;;;;;;;;;;5023346;28;20049;-74
2022/06/23 06:26:50;;;;;;;10.00;2.75;;;;;;;;;;5023542;28;20040;-74
2022/06/23 06:29:19;;;;;;;13.73;3.42;;;;;;;;;;5015448;28;20551;-74
2022/06/23 06:31:50;;;;;;;8.43;3.33;;;;;;;;;;5016183;28;20045;-74
2022/06/23 06:34:23;;;;;;;16.58;4.70;;;;;;;;;;5009864;28;20464;-74
2022/06/23 06:36:50;;;;;;;10.35;4.78;;;;;;;;;;5023132;28;20625;-74
2022/06/23 06:39:22;;;;;;;14.27;3.67;;;;;;;;;;5014433;28;20029;-74
2022/06/23 06:41:51;;;;;;;13.77;3.45;;;;;;;;;;5023456;28;20435;-74
2022/06/23 06:44:19;;;;;;;13.77;3.55;;;;;;;;;;5018028;28;20033;-74
2022/06/23 06:46:45;;;;;;;14.10;5.32;;;;;;;;;;5020090;28;20040;-74
2022/06/23 06:49:14;;;;;;;11.13;4.10;;;;;;;;;;5018120;28;20049;-74
2022/06/23 06:51:41;;;;;;;7.82;2.38;;;;;;;;;;5016970;28;20495;-74
2022/06/23 06:54:11;;;;;;;9.50;2.67;;;;;;;;;;5019513;28;20034;-74
2022/06/23 06:56:43;;;;;;;13.43;3.10;;;;;;;;;;5018564;28;20061;-74
2022/06/23 06:59:09;;;;;;;;;;;;;;;;;;5024261;28;20023;-75
2022/06/23 07:01:37;;;;;;;8.60;2.65;;;;;;;;;;5013630;28;19917;-74
2022/06/23 07:04:03;;;;;;;8.82;2.85;;;;;;;;;;5021903;28;20041;-74
2022/06/23 07:06:29;;;;;;;13.25;2.50;;;;;;;;;;5012690;28;20518;-74
2022/06/23 07:08:55;;;;;;;8.88;2.30;;;;;;;;;;5021073;28;20035;-74
2022/06/23 07:11:24;;;;;;;9.95;3.13;;;;;;;;;;5017075;28;20045;-74
2022/06/23 07:14:09;;;;;;;10.43;2.20;;;;;;;;;;5018486;28;20030;-74
2022/06/23 07:16:54;;;;;;;9.77;2.55;;;;;;;;;;5020118;28;20671;-74
2022/06/23 07:19:20;;;;;;;10.60;2.40;;;;;;;;;;5014166;28;20053;-74
2022/06/23 07:22:06;;;;;;;12.60;2.90;;;;;;;;;;5013891;28;20069;-74
2022/06/23 07:24:42;;;;;;;10.25;2.70;;;;;;;;;;5015585;28;20053;-74
2022/06/23 07:27:14;;;;;;;13.00;3.08;;;;;;;;;;5020142;28;20037;-74
2022/06/23 07:29:40;;;;;;;;;;;;;;;;;;5019559;28;20033;-74
2022/06/23 07:32:06;;;;;;;10.25;3.15;;;;;;;;;;5024851;28;19932;-74
2022/06/23 07:34:35;;;;;;;8.02;2.80;;;;;;;;;;5018702;28;20101;-74
2022/06/23 07:37:07;;;;;;;7.03;2.08;;;;;;;;;;5022279;28;20060;-74
2022/06/23 07:39:34;;;;;;;12.02;2.63;;;;;;;;;;5018590;28;20088;-74
2022/06/23 07:42:03;;;;;;;7.05;2.33;;;;;;;;;;5014868;28;20715;-74
2022/06/23 07:44:29;;;;;;;11.13;2.92;;;;;;;;;;5013378;28;20181;-74
2022/06/23 07:46:55;;;;;;;10.00;2.22;;;;;;;;;;5018255;28;20133;-74
2022/06/23 07:49:21;;;;;;;9.88;2.70;;;;;;;;;;5017727;28;20395;-74
2022/06/23 07:51:48;;;;;;;11.15;2.60;;;;;;;;;;5012593;28;20034;-74
2022/06/23 07:54:16;;;;;;;12.48;2.60;;;;;;;;;;5016400;28;20104;-74
2022/06/23 07:56:42;;;;;;;11.60;2.72;;;;;;;;;;5016093;28;20030;-74
2022/06/23 07:59:10;;;;;;;12.55;2.45;;;;;;;;;;5014012;28;20396;-75
2022/06/23 08:01:43;;;;;;;9.30;3.05;;;;;;;;;;5018044;28;20042;-74
2022/06/23 08:04:08;;;;;;;9.73;2.28;;;;;;;;;;5024704;28;20513;-74
2022/06/23 08:06:35;;;;;;;13.80;2.90;;;;;;;;;;5025720;28;20045;-74
2022/06/23 08:09:24;;;;;;;11.50;3.50;;;;;;;;;;5015060;28;20033;-74
2022/06/23 08:14:37;;;;;;;14.77;2.83;;;;;;;;;;5024748;28;20095;-74
2022/06/23 08:17:06;;;;;;;13.13;2.75;;;;;;;;;;5024227;28;20061;-74
2022/06/23 08:19:34;;;;;;;10.85;2.40;;;;;;;;;;5013461;28;20218;-74
2022/06/23 08:22:12;;;;;;;12.82;2.92;;;;;;;;;;5020602;28;20061;-74
2022/06/23 08:24:39;;;;;;;14.75;5.97;;;;;;;;;;5018486;28;20046;-74
2022/06/23 08:27:10;;;;;;;18.50;5.60;;;;;;;;;;5020467;28;20025;-74
2022/06/23 08:29:36;;;;;;;;;;;;;;;;;;5019772;28;20034;-74
2022/06/23 08:32:02;;;;;;;16.08;4.32;;;;;;;;;;5027830;28;20770;-74
2022/06/23 08:34:33;;;;;;;13.63;4.20;;;;;;;;;;5022338;28;20108;-75
2022/06/23 08:37:03;;;;;;;11.50;3.90;;;;;;;;;;5019776;28;20443;-74
2022/06/23 08:39:38;;;;;;;17.02;3.15;;;;;;;;;;5020066;28;20120;-75
2022/06/23 08:42:13;;;;;;;14.23;3.25;;;;;;;;;;5029507;28;20053;-75
2022/06/23 08:44:39;;;;;;;14.35;3.05;;;;;;;;;;5019785;28;20040;-74
2022/06/23 08:47:11;;;;;;;14.48;3.05;;;;;;;;;;5021275;28;20044;-74
2022/06/23 08:49:50;;;;;;;11.98;3.78;;;;;;;;;;5016158;28;20038;-74
2022/06/23 08:52:34;;;;;;;8.73;2.63;;;;;;;;;;5018810;28;20387;-75
2022/06/23 08:55:04;;;;;;;13.38;2.97;;;;;;;;;;5015548;28;20119;-75
2022/06/23 08:57:39;;;;;;;12.27;3.53;;;;;;;;;;5020652;28;20044;-75
2022/06/23 09:00:18;;;;;;;16.98;3.28;;;;;;;;;;5014362;28;20854;-75
2022/06/23 09:03:02;;;;;;;12.50;2.60;;;;;;;;;;5019186;28;20064;-75
2022/06/23 09:05:28;;;;;;;14.38;2.78;;;;;;;;;;5025783;28;20103;-74
2022/06/23 09:07:59;;;;;;;14.20;3.60;;;;;;;;;;5021375;28;20452;-74
2022/06/23 09:10:25;;;;;;;12.25;2.88;;;;;;;;;;5022309;28;20125;-74
2022/06/23 09:12:57;;;;;;;12.05;3.08;;;;;;;;;;5024183;28;20390;-74
2022/06/23 09:15:32;;;;;;;8.43;1.83;;;;;;;;;;5019416;28;20030;-75
2022/06/23 09:17:58;;;;;;;11.90;2.58;;;;;;;;;;5019166;28;20501;-74
2022/06/23 09:20:46;;;;;;;12.32;2.67;;;;;;;;;;5018284;28;20022;-72
2022/06/23 09:23:12;;;;;;;13.20;3.08;;;;;;;;;;5016252;28;20057;-72
2022/06/23 09:25:48;;;;;;;12.88;3.03;;;;;;;;;;5018919;28;20462;-75
2022/06/23 09:28:19;;;;;;;9.73;2.03;;;;;;;;;;5023284;28;20052;-75
2022/06/23 09:30:48;;;;;;;12.57;2.22;;;;;;;;;;5021191;28;20077;-75
2022/06/23 09:33:14;;;;;;;14.23;2.22;;;;;;;;;;5020809;28;20064;-75
2022/06/23 09:35:52;;;;;;;9.68;2.10;;;;;;;;;;5020274;28;20478;-75
2022/06/23 09:38:24;;;;;;;17.90;2.92;;;;;;;;;;5016327;28;20368;-75
2022/06/23 09:40:53;;;;;;;11.98;2.33;;;;;;;;;;5016703;28;20076;-74
2022/06/23 09:43:27;;;;;;;13.10;3.03;;;;;;;;;;5020675;28;20033;-74
2022/06/23 09:45:58;;;;;;;8.75;2.35;;;;;;;;;;5018999;28;20116;-74
2022/06/23 09:48:24;;;;;;;;;;;;;;;;;;5015372;28;20124;-74
2022/06/23 09:51:12;;;;;;;12.88;2.47;;;;;;;;;;5016523;28;20347;-75
2022/06/23 09:53:38;;;;;;;13.05;2.35;;;;;;;;;;5015007;28;20038;-74
2022/06/23 09:56:16;;;;;;;15.30;3.00;;;;;;;;;;5017022;28;20065;-74
2022/06/23 09:58:58;;;;;;;12.30;2.33;;;;;;;;;;5018917;28;20017;-74
2022/06/23 10:01:24;;;;;;;;;;;;;;;;;;5019583;28;20048;-74
2022/06/23 10:03:53;;;;;;;14.38;2.13;;;;;;;;;;5017778;28;19913;-74
2022/06/23 10:06:28;;;;;;;11.05;2.20;;;;;;;;;;5020287;28;20056;-74
2022/06/23 10:09:23;;;;;;;17.67;2.95;;;;;;;;;;5020745;28;20700;-75
2022/06/23 10:11:49;;;;;;;13.18;2.45;;;;;;;;;;4988843;28;20121;-74
2022/06/23 10:14:20;;;;;;;15.23;3.25;;;;;;;;;;5021275;28;20034;-74
2022/06/23 10:17:07;;;;;;;10.93;2.42;;;;;;;;;;5018993;28;20056;-74
2022/06/23 10:19:42;;;;;;;14.40;2.80;;;;;;;;;;5019180;28;20037;-75
2022/06/23 10:22:08;;;;;;;13.10;2.38;;;;;;;;;;5018769;28;20537;-75
2022/06/23 10:24:40;;;;;;;11.60;2.38;;;;;;;;;;5014902;28;20057;-75
2022/06/23 10:27:09;;;;;;;10.18;2.38;;;;;;;;;;5016992;28;20680;-74
2022/06/23 10:29:38;;;;;;;11.55;2.10;;;;;;;;;;5014875;28;20455;-74
2022/06/23 10:32:23;;;;;;;14.77;2.88;;;;;;;;;;5015362;28;20037;-74
2022/06/23 10:34:49;;;;;;;18.55;2.70;;;;;;;;;;5021064;28;20108;-74
2022/06/23 10:37:15;;;;;;;11.77;2.53;;;;;;;;;;5021929;28;20044;-74
2022/06/23 10:39:53;;;;;;;15.15;2.78;;;;;;;;;;5019986;28;20060;-74
2022/06/23 10:42:29;;;;;;;14.70;2.72;;;;;;;;;;5018369;28;20463;-74
2022/06/23 10:44:58;;;;;;;11.73;2.63;;;;;;;;;;5022371;28;20072;-74
2022/06/23 10:47:27;;;;;;;11.25;2.28;;;;;;;;;;5018668;28;20042;-74
2022/06/23 10:49:53;;;;;;;17.17;3.08;;;;;;;;;;5015158;28;20029;-74
2022/06/23 10:52:23;;;;;;;18.55;2.97;;;;;;;;;;5017826;28;20034;-74
2022/06/23 10:54:49;;;;;;;12.80;2.80;;;;;;;;;;5016929;28;20357;-74
2022/06/23 10:57:39;;;;;;;11.82;3.03;;;;;;;;;;5015450;28;20034;-73
2022/06/23 11:00:25;;;;;;;14.15;2.58;;;;;;;;;;5016964;28;20022;-74
2022/06/23 11:02:51;;;;;;;15.80;2.92;;;;;;;;;;5014131;28;20069;-74
2022/06/23 11:05:17;;;;;;;12.93;3.40;;;;;;;;;;5015417;28;20770;-74
2022/06/23 11:08:02;;;;;;;19.38;3.78;;;;;;;;;;5013138;28;20064;-74
2022/06/23 11:10:47;;;;;;;12.55;2.80;;;;;;;;;;5016436;28;20081;-74
2022/06/23 11:13:27;;;;;;;11.45;2.72;;;;;;;;;;5015402;28;20560;-74
2022/06/23 11:16:12;;;;;;;14.07;3.00;;;;;;;;;;5020006;28;20046;-74
2022/06/23 11:18:46;;;;;;;18.45;3.35;;;;;;;;;;5017214;28;20034;-74
2022/06/23 11:21:12;;;;;;;24.05;4.13;;;;;;;;;;5018437;28;20063;-74
2022/06/23 11:23:44;;;;;;;15.32;3.13;;;;;;;;;;5016051;28;20058;-74
2022/06/23 11:26:23;;;;;;;21.30;4.10;;;;;;;;;;5017325;28;20038;-75
2022/06/23 11:29:08;;;;;;;13.95;3.28;;;;;;;;;;5016336;28;20642;-74
2022/06/23 11:31:57;;;;;;;15.18;3.38;;;;;;;;;;5012240;28;20046;-74
2022/06/23 11:34:23;;;;;;;23.67;4.15;;;;;;;;;;5005511;28;20049;-74
2022/06/23 11:37:01;;;;;;;24.30;4.85;;;;;;;;;;5012812;28;20030;-74
2022/06/23 11:39:27;;;;;;;16.77;4.07;;;;;;;;;;5017597;28;20095;-74
2022/06/23 11:42:02;;;;;;;19.95;3.78;;;;;;;;;;5016579;28;20042;-74
2022/06/23 11:44:47;;;;;;;17.63;3.90;;;;;;;;;;5013956;28;20052;-74
2022/06/23 11:47:20;;;;;;;16.80;3.38;;;;;;;;;;5012200;28;20695;-74
2022/06/23 11:49:51;;;;;;;22.98;3.55;;;;;;;;;;5013554;28;20030;-74
2022/06/23 11:52:26;;;;;;;21.02;4.65;;;;;;;;;;5015614;28;20030;-74
2022/06/23 11:54:52;;;;;;;26.67;4.25;;;;;;;;;;5020957;28;20022;-74
2022/06/23 11:57:21;;;;;;;32.53;5.90;;;;;;;;;;5015770;28;20034;-74
2022/06/23 11:59:53;;;;;;;22.92;4.70;;;;;;;;;;5013434;28;20026;-74
2022/06/23 12:02:19;;;;;;;31.20;5.10;;;;;;;;;;5011264;28;20108;-74
2022/06/23 12:05:04;;;;;;;23.52;4.78;;;;;;;;;;5012405;28;20035;-74
2022/06/23 12:07:30;;;;;;;24.10;4.05;;;;;;;;;;5014897;28;20033;-74
2022/06/23 12:10:17;;;;;;;21.20;3.67;;;;;;;;;;5014108;28;20113;-74
2022/06/23 12:12:44;;;;;;;23.25;4.97;;;;;;;;;;5019313;28;20041;-74
2022/06/23 12:15:11;;;;;;;21.73;4.22;;;;;;;;;;5015709;28;20029;-74
2022/06/23 12:17:38;;;;;;;24.52;5.13;;;;;;;;;;5015777;28;20036;-74
2022/06/23 12:20:04;;;;;;;22.98;5.10;;;;;;;;;;5016138;28;20030;-74
2022/06/23 12:22:36;;;;;;;31.80;5.80;;;;;;;;;;5020003;28;20038;-74
2022/06/23 12:25:05;;;;;;;23.55;4.50;;;;;;;;;;5020345;28;20053;-74
2022/06/23 12:27:40;;;;;;;29.63;4.20;;;;;;;;;;5017324;28;20049;-74
2022/06/23 12:30:09;;;;;;;28.05;5.15;;;;;;;;;;5016018;28;20612;-74
2022/06/23 12:32:53;;;;;;;26.50;5.43;;;;;;;;;;5013832;28;20033;-74
2022/06/23 12:35:34;;;;;;;27.02;4.97;;;;;;;;;;5019770;28;20053;-74
2022/06/23 12:38:07;;;;;;;36.63;6.40;;;;;;;;;;5011847;28;20045;-74
2022/06/23 12:40:48;;;;;;;32.38;5.95;;;;;;;;;;5013469;28;20112;-74
2022/06/23 12:43:14;;;;;;;;;;;;;;;;;;5022791;28;20042;-74
2022/06/23 12:45:58;;;;;;;27.63;5.75;;;;;;;;;;5019697;28;19918;-74
2022/06/23 12:48:43;;;;;;;37.20;5.63;;;;;;;;;;5019533;28;20060;-74
2022/06/23 12:51:36;;;;;;;34.58;6.28;;;;;;;;;;5009442;28;20443;-74
2022/06/23 12:54:20;;;;;;;28.27;6.15;;;;;;;;;;5013953;28;20056;-74
2022/06/23 12:56:52;;;;;;;37.35;6.20;;;;;;;;;;5017857;28;20057;-74
2022/06/23 12:59:29;;;;;;;24.45;4.95;;;;;;;;;;5017744;28;20069;-74
2022/06/23 13:02:07;;;;;;;34.97;5.47;;;;;;;;;;5017640;28;20037;-74
2022/06/23 13:04:41;;;;;;;23.80;4.72;;;;;;;;;;5021241;28;20554;-74
2022/06/23 13:07:09;;;;;;;27.60;5.25;;;;;;;;;;5019975;28;20033;-74
2022/06/23 13:09:37;;;;;;;27.15;5.70;;;;;;;;;;5022516;28;20402;-74
2022/06/23 13:12:15;;;;;;;29.63;6.10;;;;;;;;;;5025782;28;20369;-74
2022/06/23 13:14:47;;;;;;;28.42;6.25;;;;;;;;;;5021054;28;20077;-74
2022/06/23 13:17:21;;;;;;;25.75;5.25;;;;;;;;;;5017423;28;20041;-74
2022/06/23 13:19:52;;;;;;;37.42;6.25;;;;;;;;;;5021657;28;20030;-74
2022/06/23 13:22:18;;;;;;;30.05;5.28;;;;;;;;;;5019117;28;20065;-74
2022/06/23 13:24:44;;;;;;;30.33;5.13;;;;;;;;;;5024258;28;20496;-74
2022/06/23 13:27:19;;;;;;;23.23;4.78;;;;;;;;;;5023224;28;20029;-74
2022/06/23 13:29:48;;;;;;;30.80;6.15;;;;;;;;;;5024053;28;20026;-74
2022/06/23 13:32:24;;;;;;;30.17;5.53;;;;;;;;;;5015029;28;20045;-74
2022/06/23 13:34:50;;;;;;;30.17;5.28;;;;;;;;;;5017967;28;20033;-74
2022/06/23 13:37:19;;;;;;;28.35;5.78;;;;;;;;;;5014749;28;20977;-74
2022/06/23 13:40:00;;;;;;;31.02;5.45;;;;;;;;;;5019630;28;20029;-74
2022/06/23 13:42:30;;;;;;;34.20;6.03;;;;;;;;;;5021180;28;20590;-74
2022/06/23 13:45:18;;;;;;;32.38;5.45;;;;;;;;;;5011402;28;20030;-74
2022/06/23 13:47:51;;;;;;;33.97;5.45;;;;;;;;;;5019117;28;20037;-74
2022/06/23 13:50:37;;;;;;;27.13;5.30;;;;;;;;;;5017718;28;20035;-74
2022/06/23 13:53:10;;;;;;;28.25;5.43;;;;;;;;;;5020940;28;20112;-74
2022/06/23 13:55:51;;;;;;;29.15;5.10;;;;;;;;;;5021047;28;20119;-74
2022/06/23 13:58:32;;;;;;;31.75;6.03;;;;;;;;;;5015288;28;20061;-74
2022/06/23 14:01:03;;;;;;;31.65;4.82;;;;;;;;;;5016901;28;20033;-74
2022/06/23 14:03:35;;;;;;;28.23;5.40;;;;;;;;;;5020734;28;20069;-74
2022/06/23 14:06:30;;;;;;;31.10;5.63;;;;;;;;;;5022517;28;20679;-74
2022/06/23 14:09:20;;;;;;;27.77;6.55;;;;;;;;;;5004630;28;20072;-74
2022/06/23 14:11:52;;;;;;;34.17;6.13;;;;;;;;;;5014416;28;20480;-74
2022/06/23 14:14:27;;;;;;;35.65;6.82;;;;;;;;;;5018676;28;20037;-74
2022/06/23 14:16:57;;;;;;;34.45;8.00;;;;;;;;;;5015612;28;20038;-74
2022/06/23 14:19:31;;;;;;;40.53;7.05;;;;;;;;;;5016677;28;20428;-74
2022/06/23 14:22:01;;;;;;;36.20;7.07;;;;;;;;;;5021032;28;20029;-74
2022/06/23 14:24:32;;;;;;;31.48;6.22;;;;;;;;;;5016706;28;20129;-74
2022/06/23 14:26:58;;;;;;;;;;;;;;;;;;5022043;28;20033;-74
2022/06/23 14:29:27;;;;;;;28.40;5.47;;;;;;;;;;5023583;28;20431;-74
2022/06/23 14:31:53;;;;;;;28.60;5.75;;;;;;;;;;5015486;28;20586;-74
2022/06/23 14:34:28;;;;;;;25.67;5.95;;;;;;;;;;5012719;28;20030;-74
2022/06/23 14:36:54;;;;;;;30.48;5.35;;;;;;;;;;5012946;28;20515;-74
2022/06/23 14:39:20;;;;;;;34.75;6.80;;;;;;;;;;5020903;28;20057;-74
2022/06/23 14:41:46;;;;;;;28.13;6.05;;;;;;;;;;5023351;28;20033;-74
2022/06/23 14:44:22;;;;;;;30.20;5.65;;;;;;;;;;5018022;28;20064;-74
2022/06/23 14:46:49;;;;;;;32.47;5.75;;;;;;;;;;5017801;28;20083;-74
2022/06/23 14:49:33;;;;;;;31.00;5.47;;;;;;;;;;5028471;28;20056;-74
2022/06/23 14:52:25;;;;;;;30.75;6.40;;;;;;;;;;5015162;28;20045;-74
2022/06/23 14:55:12;;;;;;;33.22;6.22;;;;;;;;;;5017262;28;20060;-74
2022/06/23 14:57:50;;;;;;;30.35;6.07;;;;;;;;;;5005237;28;20050;-74
2022/06/23 15:00:16;;;;;;;37.17;7.05;;;;;;;;;;5011861;28;20072;-74
2022/06/23 15:02:42;;;;;;;43.63;7.53;;;;;;;;;;5013568;28;20037;-74
2022/06/23 15:05:14;;;;;;;32.78;6.15;;;;;;;;;;5026285;28;20029;-74
2022/06/23 15:07:52;;;;;;;28.75;6.22;;;;;;;;;;5021014;28;20034;-74
2022/06/23 15:10:24;;;;;;;24.70;6.05;;;;;;;;;;5021558;28;20100;-74
2022/06/23 15:12:56;;;;;;;20.20;5.32;;;;;;;;;;5011926;28;20037;-74
2022/06/23 15:15:25;;;;;;;17.70;4.68;;;;;;;;;;5017327;28;20045;-74
2022/06/23 15:18:13;;;;;;;21.58;5.80;;;;;;;;;;5010947;28;20030;-74